Time;durP1;ratioP1;P1;durP2;ratioP2;P2;SDS_P1;SDS_P2;PMS_P1;PMS_P2;Temp;Humidity;BMP_temperature;BMP_pressure;BME280_temperature;BME280_humidity;BME280_pressure;Samples;Min_cycle;Max_cycle;Signal;HPM_P1;HPM_P2
2022/06/24 00:01:59;;;;;;;4.53;2.22;;;20.50;52.20;;;;;;4996783;28;20030;-71
2022/06/24 00:04:26;;;;;;;4.50;2.25;;;20.40;52.60;;;;;;4993999;28;20053;-71
2022/06/24 00:06:53;;;;;;;5.20;2.70;;;20.40;52.90;;;;;;5028869;28;20417;-71
2022/06/24 00:09:19;;;;;;;3.53;2.53;;;20.40;53.20;;;;;;5009889;28;20025;-71
2022/06/24 00:11:45;;;;;;;3.60;2.60;;;20.30;53.60;;;;;;5028315;28;20029;-71
2022/06/24 00:14:15;;;;;;;5.30;2.30;;;20.20;53.70;;;;;;5011076;28;20049;-71
2022/06/24 00:17:04;;;;;;;3.90;2.03;;;20.20;54.00;;;;;;4995852;28;20496;-70
2022/06/24 00:19:32;;;;;;;4.00;2.70;;;20.20;54.20;;;;;;5028461;28;20025;-71
2022/06/24 00:21:59;;;;;;;4.13;2.50;;;20.20;54.60;;;;;;5028400;28;20519;-70
2022/06/24 00:24:25;;;;;;;4.63;2.58;;;20.10;54.80;;;;;;5012026;28;20384;-70
2022/06/24 00:26:50;;;;;;;3.58;2.53;;;20.10;55.00;;;;;;5028430;28;20025;-71
2022/06/24 00:29:17;;;;;;;3.15;2.08;;;20.10;55.20;;;;;;5021836;28;20113;-68
2022/06/24 00:31:59;;;;;;;9.27;2.88;;;20.10;55.30;;;;;;5020602;28;20060;-70
2022/06/24 00:34:25;;;;;;;4.28;2.42;;;20.10;55.30;;;;;;5028694;28;20041;-71
2022/06/24 00:36:50;;;;;;;3.80;2.28;;;20.10;55.40;;;;;;5028672;28;20495;-69
2022/06/24 00:39:18;;;;;;;4.20;2.28;;;20.00;55.60;;;;;;5027993;28;20117;-70
2022/06/24 00:41:50;;;;;;;3.00;2.58;;;20.00;55.80;;;;;;5028653;28;20025;-69
2022/06/24 00:44:19;;;;;;;4.68;2.40;;;20.00;56.10;;;;;;5028639;28;20551;-70
2022/06/24 00:46:47;;;;;;;4.82;2.55;;;19.90;56.40;;;;;;5028655;28;20029;-70
2022/06/24 00:49:23;;;;;;;4.55;2.25;;;19.90;56.40;;;;;;5020867;28;20075;-69
2022/06/24 00:51:48;;;;;;;5.20;2.38;;;19.90;56.60;;;;;;5021148;28;20025;-69
2022/06/24 00:54:15;;;;;;;2.45;2.33;;;19.90;56.70;;;;;;5028681;28;20475;-70
2022/06/24 00:56:42;;;;;;;4.20;2.60;;;19.90;56.60;;;;;;5028413;28;20090;-69
2022/06/24 00:59:08;;;;;;;4.85;2.60;;;19.80;56.80;;;;;;5028363;28;20025;-70
2022/06/24 01:01:39;;;;;;;4.53;2.45;;;19.80;57.00;;;;;;5028627;28;20104;-70
2022/06/24 01:04:10;;;;;;;8.07;2.45;;;19.70;57.20;;;;;;5028695;28;20036;-70
2022/06/24 01:06:38;;;;;;;3.40;2.35;;;19.70;57.40;;;;;;5028427;28;20041;-70
2022/06/24 01:09:05;;;;;;;5.55;2.38;;;19.70;57.50;;;;;;5028131;28;20546;-70
2022/06/24 01:11:35;;;;;;;4.18;2.33;;;19.60;57.70;;;;;;5028129;28;20414;-69
2022/06/24 01:14:01;;;;;;;3.83;1.98;;;19.60;58.00;;;;;;5028122;28;20022;-69
2022/06/24 01:16:27;;;;;;;7.70;2.55;;;19.50;58.30;;;;;;5027968;28;20053;-69
2022/06/24 01:18:54;;;;;;;3.45;2.50;;;19.50;58.40;;;;;;5027654;28;20045;-70
2022/06/24 01:21:39;;;;;;;4.32;2.72;;;19.40;58.60;;;;;;5029013;28;20386;-70
2022/06/24 01:24:07;;;;;;;3.58;2.38;;;19.40;58.90;;;;;;5031915;28;20029;-70
2022/06/24 01:26:34;;;;;;;4.28;2.42;;;19.30;59.20;;;;;;5031720;28;20037;-71
2022/06/24 01:29:00;;;;;;;12.88;3.05;;;19.30;59.20;;;;;;5027796;28;20025;-71
2022/06/24 01:31:25;;;;;;;3.53;2.60;;;19.30;59.40;;;;;;5021274;28;20112;-69
2022/06/24 01:33:51;;;;;;;4.25;2.28;;;19.20;59.60;;;;;;5031695;28;20070;-69
2022/06/24 01:36:16;;;;;;;5.47;2.75;;;19.10;59.90;;;;;;5031725;28;20029;-70
2022/06/24 01:38:42;;;;;;;5.50;2.90;;;19.10;59.90;;;;;;5031271;28;20024;-70
2022/06/24 01:41:08;;;;;;;5.95;2.53;;;19.10;60.00;;;;;;5031977;28;20068;-70
2022/06/24 01:43:34;;;;;;;4.18;2.60;;;19.20;60.00;;;;;;5014099;28;20399;-69
2022/06/24 01:46:00;;;;;;;3.88;2.30;;;19.10;60.00;;;;;;5031433;28;20100;-69
2022/06/24 01:48:25;;;;;;;3.35;2.50;;;19.00;60.30;;;;;;5031172;28;20064;-69
2022/06/24 01:50:51;;;;;;;3.30;2.72;;;19.00;60.30;;;;;;5031411;28;20025;-70
2022/06/24 01:53:17;;;;;;;4.32;2.45;;;19.00;60.50;;;;;;5031681;28;20041;-70
2022/06/24 01:55:42;;;;;;;5.22;2.40;;;19.00;60.40;;;;;;5031390;28;20589;-70
2022/06/24 01:58:08;;;;;;;3.97;2.58;;;18.90;60.70;;;;;;5013415;28;20497;-71
2022/06/24 02:00:33;;;;;;;10.40;2.85;;;18.90;60.80;;;;;;5031612;28;20288;-69
2022/06/24 02:03:03;;;;;;;5.05;2.70;;;18.90;61.00;;;;;;5031013;28;20467;-70
2022/06/24 02:05:30;;;;;;;4.88;2.70;;;18.90;61.10;;;;;;5031155;28;20034;-69
2022/06/24 02:07:56;;;;;;;4.43;2.88;;;18.80;61.20;;;;;;5031070;28;20030;-69
2022/06/24 02:15:49;;;;;;;3.50;3.08;;;18.70;61.60;;;;;;5031276;28;20033;-69
2022/06/24 02:18:15;;;;;;;5.85;2.53;;;18.70;61.70;;;;;;5030821;28;20022;-71
2022/06/24 02:20:41;;;;;;;6.25;2.55;;;18.60;61.70;;;;;;4981216;28;20112;-70
2022/06/24 02:23:06;;;;;;;6.63;2.97;;;18.70;61.80;;;;;;5031074;28;20036;-69
2022/06/24 02:25:32;;;;;;;3.75;2.70;;;18.60;62.00;;;;;;5013102;28;20479;-69
2022/06/24 02:27:57;;;;;;;3.72;2.30;;;18.60;61.90;;;;;;5030658;28;20112;-70
2022/06/24 02:30:23;;;;;;;4.32;2.63;;;18.60;61.80;;;;;;5016692;28;20029;-69
2022/06/24 02:32:48;;;;;;;6.82;2.70;;;18.60;61.80;;;;;;5029961;28;20024;-70
2022/06/24 02:35:14;;;;;;;4.13;2.72;;;18.60;62.00;;;;;;5030870;28;20025;-70
2022/06/24 02:37:40;;;;;;;4.45;2.65;;;18.60;62.00;;;;;;5030554;28;20028;-70
2022/06/24 02:42:57;;;;;;;3.53;2.58;;;18.50;62.10;;;;;;5000894;28;20176;-68
2022/06/24 02:45:23;;;;;;;3.70;2.47;;;18.50;62.20;;;;;;5031623;28;20050;-68
2022/06/24 02:47:49;;;;;;;6.03;2.65;;;18.50;62.30;;;;;;5012646;28;20503;-70
2022/06/24 02:50:15;;;;;;;5.60;2.40;;;18.50;62.30;;;;;;5030558;28;20029;-70
2022/06/24 02:52:40;;;;;;;5.32;2.72;;;18.50;62.40;;;;;;5030177;28;20487;-71
2022/06/24 02:55:06;;;;;;;7.53;2.92;;;18.50;62.30;;;;;;5030450;28;20479;-70
2022/06/24 02:57:32;;;;;;;4.10;2.63;;;18.60;62.40;;;;;;5012498;28;20075;-69
2022/06/24 02:59:58;;;;;;;6.13;2.85;;;18.60;62.30;;;;;;5030489;28;20026;-69
2022/06/24 03:02:24;;;;;;;4.72;2.20;;;18.60;62.30;;;;;;5030225;28;20026;-69
2022/06/24 03:04:49;;;;;;;3.63;2.30;;;18.70;61.90;;;;;;5030475;28;20043;-68
2022/06/24 03:07:15;;;;;;;162.57;88.63;;;18.70;61.80;;;;;;5029894;28;20074;-72
2022/06/24 03:09:40;;;;;;;219.40;116.50;;;18.80;61.60;;;;;;5030592;28;20497;-70
2022/06/24 03:12:06;;;;;;;14.63;5.80;;;18.80;61.50;;;;;;5012329;28;20112;-69
2022/06/24 03:14:32;;;;;;;13.70;6.15;;;18.80;61.40;;;;;;5030173;28;20022;-69
2022/06/24 03:16:57;;;;;;;5.43;3.30;;;18.80;61.50;;;;;;5029828;28;20021;-67
2022/06/24 03:19:23;;;;;;;59.80;29.10;;;18.90;61.30;;;;;;5029816;28;20022;-71
2022/06/24 03:21:49;;;;;;;4.00;2.67;;;18.90;61.20;;;;;;5029750;28;20037;-69
2022/06/24 03:24:15;;;;;;;7.03;3.90;;;18.90;61.00;;;;;;5030067;28;20033;-70
2022/06/24 03:26:41;;;;;;;6.75;2.88;;;19.10;60.70;;;;;;4997655;28;20491;-70
2022/06/24 03:29:06;;;;;;;4.80;2.53;;;19.70;59.00;;;;;;5025503;28;20105;-70
2022/06/24 03:31:32;;;;;;;3.75;2.35;;;20.60;56.30;;;;;;5003008;28;20025;-71
2022/06/24 03:33:58;;;;;;;6.78;2.33;;;21.60;53.50;;;;;;5029914;28;20053;-71
2022/06/24 03:36:25;;;;;;;3.13;2.10;;;22.20;51.20;;;;;;5029929;28;20026;-71
2022/06/24 03:38:50;;;;;;;4.70;2.47;;;22.80;49.70;;;;;;5029498;28;20014;-69
2022/06/24 03:41:16;;;;;;;6.70;2.33;;;23.40;47.80;;;;;;5029754;28;20397;-71
2022/06/24 03:43:41;;;;;;;3.80;2.28;;;23.70;46.80;;;;;;5029556;28;20022;-69
2022/06/24 03:46:07;;;;;;;4.78;2.20;;;24.00;46.30;;;;;;5029587;28;20033;-71
2022/06/24 03:48:33;;;;;;;5.88;2.50;;;24.20;45.60;;;;;;5029130;28;20060;-70
2022/06/24 03:50:58;;;;;;;3.83;2.33;;;24.70;44.50;;;;;;5029178;28;20036;-70
2022/06/24 03:53:24;;;;;;;4.38;2.33;;;25.30;43.00;;;;;;5029307;28;20021;-71
2022/06/24 03:55:51;;;;;;;3.47;1.83;;;26.00;41.80;;;;;;5029209;28;20037;-70
2022/06/24 03:58:18;;;;;;;2.10;1.90;;;26.50;40.40;;;;;;5028943;28;20036;-71
2022/06/24 04:00:44;;;;;;;2.80;2.20;;;26.50;40.00;;;;;;5029164;28;20422;-71
2022/06/24 04:03:10;;;;;;;6.30;2.40;;;26.40;40.40;;;;;;5029166;28;20040;-70
2022/06/24 04:05:36;;;;;;;5.35;1.67;;;26.60;39.90;;;;;;5029152;28;20025;-72
2022/06/24 04:08:02;;;;;;;6.38;2.28;;;27.00;39.00;;;;;;5028892;28;20025;-72
2022/06/24 04:10:28;;;;;;;4.38;2.05;;;27.60;38.30;;;;;;5011355;28;20479;-72
2022/06/24 04:12:53;;;;;;;2.90;1.98;;;28.40;36.70;;;;;;5028998;28;20025;-71
2022/06/24 04:15:19;;;;;;;4.15;2.10;;;29.00;35.70;;;;;;5029070;28;20018;-72
2022/06/24 04:17:49;;;;;;;4.47;1.60;;;29.40;34.90;;;;;;5028789;28;20021;-71
2022/06/24 04:20:17;;;;;;;2.33;1.90;;;29.70;34.80;;;;;;5029030;28;20387;-71
2022/06/24 04:22:44;;;;;;;10.45;1.83;;;30.40;33.60;;;;;;4996945;28;20039;-71
2022/06/24 04:25:11;;;;;;;8.10;2.00;;;30.90;32.10;;;;;;5028890;28;20120;-70
2022/06/24 04:27:37;;;;;;;2.53;1.80;;;30.60;32.50;;;;;;5028693;28;20379;-70
2022/06/24 04:30:05;;;;;;;3.50;2.10;;;29.50;33.70;;;;;;5016540;28;20090;-69
2022/06/24 04:32:32;;;;;;;4.90;1.92;;;28.90;35.30;;;;;;5027433;28;20053;-71
2022/06/24 04:34:57;;;;;;;3.85;2.20;;;28.90;34.90;;;;;;5028645;28;20026;-71
2022/06/24 04:37:23;;;;;;;3.60;2.10;;;28.90;35.20;;;;;;5028408;28;20028;-72
2022/06/24 04:39:49;;;;;;;6.03;1.90;;;29.60;34.10;;;;;;5028821;28;20052;-72
2022/06/24 04:42:15;;;;;;;3.47;1.90;;;30.70;32.60;;;;;;5010893;28;20040;-71
2022/06/24 04:44:40;;;;;;;2.83;1.90;;;31.00;31.90;;;;;;5011004;28;20025;-70
2022/06/24 04:47:06;;;;;;;4.75;2.20;;;31.70;31.00;;;;;;5028495;28;20036;-69
2022/06/24 04:49:35;;;;;;;3.35;2.03;;;31.10;31.20;;;;;;5028836;28;20040;-71
2022/06/24 04:52:00;;;;;;;5.60;2.17;;;31.00;31.50;;;;;;5028692;28;20389;-71
2022/06/24 04:54:26;;;;;;;5.28;1.95;;;31.60;30.70;;;;;;5010969;28;20153;-71
2022/06/24 04:56:52;;;;;;;5.95;2.03;;;31.30;31.10;;;;;;5027952;28;20021;-71
2022/06/24 04:59:17;;;;;;;4.57;2.50;;;31.20;31.40;;;;;;5028807;28;20034;-71
2022/06/24 05:01:43;;;;;;;5.07;2.00;;;30.90;31.60;;;;;;5028532;28;20042;-72
2022/06/24 05:04:08;;;;;;;7.72;2.47;;;30.60;32.10;;;;;;5028591;28;20036;-71
2022/06/24 05:06:34;;;;;;;8.77;2.28;;;30.60;32.00;;;;;;5028224;28;20094;-72
2022/06/24 05:09:00;;;;;;;5.28;2.00;;;30.00;33.00;;;;;;5028232;28;20104;-71
2022/06/24 05:11:25;;;;;;;2.97;2.03;;;30.30;33.20;;;;;;5010610;28;20049;-72
2022/06/24 05:13:51;;;;;;;5.45;2.55;;;30.90;31.80;;;;;;5028149;28;20021;-71
2022/06/24 05:16:17;;;;;;;3.75;2.08;;;31.40;31.50;;;;;;5028435;28;20074;-74
2022/06/24 05:18:43;;;;;;;5.47;2.20;;;32.70;29.90;;;;;;5027603;28;20483;-73
2022/06/24 05:21:08;;;;;;;3.95;1.98;;;33.80;28.30;;;;;;5027976;28;20399;-73
2022/06/24 05:23:34;;;;;;;6.97;2.60;;;33.20;28.70;;;;;;5059681;22;20092;-69
2022/06/24 05:26:00;;;;;;;6.00;2.10;;;32.30;30.30;;;;;;5033877;28;20475;-70
2022/06/24 05:28:25;;;;;;;5.43;2.20;;;32.40;30.20;;;;;;5044390;28;20270;-69
2022/06/24 05:30:57;;;;;;;8.68;2.20;;;32.70;29.60;;;;;;5014251;28;20029;-69
2022/06/24 05:33:24;;;;;;;3.60;2.17;;;32.00;30.10;;;;;;5028365;28;20044;-68
2022/06/24 05:35:54;;;;;;;7.03;2.60;;;32.20;30.60;;;;;;5028055;28;20021;-69
2022/06/24 05:38:22;;;;;;;10.23;2.33;;;32.90;29.00;;;;;;5010045;28;20399;-70
2022/06/24 05:40:51;;;;;;;10.38;3.17;;;32.90;29.10;;;;;;5027955;28;20030;-68
2022/06/24 05:43:20;;;;;;;8.25;3.00;;;33.80;28.40;;;;;;5027739;28;20041;-69
2022/06/24 05:45:47;;;;;;;7.32;2.20;;;34.60;26.90;;;;;;5022673;28;20029;-68
2022/06/24 05:48:13;;;;;;;14.65;2.83;;;33.10;28.20;;;;;;5023683;28;20026;-69
2022/06/24 05:50:39;;;;;;;4.82;2.83;;;32.10;29.60;;;;;;5025217;28;20030;-70
2022/06/24 05:55:55;;;;;;;7.35;2.30;;;33.30;28.30;;;;;;5009627;28;20037;-69
2022/06/24 05:58:21;;;;;;;5.00;2.70;;;33.90;27.60;;;;;;5010694;28;20022;-69
2022/06/24 06:00:46;;;;;;;5.40;2.33;;;34.70;26.30;;;;;;5011656;28;20109;-70
2022/06/24 06:03:12;;;;;;;6.18;2.20;;;35.00;25.50;;;;;;5010047;28;20037;-70
2022/06/24 06:05:38;;;;;;;8.77;2.63;;;34.50;26.40;;;;;;5027937;28;20112;-68
2022/06/24 06:08:04;;;;;;;4.97;2.60;;;34.10;26.60;;;;;;5010360;28;20379;-69
2022/06/24 06:10:29;;;;;;;8.07;2.42;;;33.50;28.00;;;;;;5030999;28;20030;-69
2022/06/24 06:12:55;;;;;;;9.85;2.20;;;33.20;27.80;;;;;;5030779;28;20327;-69
2022/06/24 06:15:21;;;;;;;4.80;2.15;;;33.40;28.00;;;;;;5031036;28;20049;-69
2022/06/24 06:17:46;;;;;;;8.68;2.70;;;33.30;27.40;;;;;;5030642;28;20100;-70
2022/06/24 06:20:12;;;;;;;5.95;2.47;;;33.90;26.90;;;;;;5030896;28;20082;-69
2022/06/24 06:22:37;;;;;;;6.95;2.55;;;33.50;27.60;;;;;;5030661;28;20029;-69
2022/06/24 06:25:03;;;;;;;6.95;2.33;;;34.50;26.20;;;;;;5030992;28;20112;-69
2022/06/24 06:27:29;;;;;;;6.22;2.90;;;35.00;25.80;;;;;;5030388;28;20097;-69
2022/06/24 06:29:55;;;;;;;5.57;2.33;;;34.90;25.40;;;;;;5019810;28;20037;-71
2022/06/24 06:32:21;;;;;;;6.00;2.25;;;35.50;25.10;;;;;;5028148;28;20032;-69
2022/06/24 06:34:46;;;;;;;8.45;2.30;;;36.80;24.20;;;;;;5030497;28;20534;-70
2022/06/24 06:37:12;;;;;;;5.07;2.63;;;37.40;23.20;;;;;;5034427;28;20093;-70
2022/06/24 06:39:38;;;;;;;7.68;2.42;;;37.00;23.20;;;;;;5021262;28;20117;-69
2022/06/24 06:42:04;;;;;;;6.15;2.35;;;37.60;22.70;;;;;;5007737;28;20028;-69
2022/06/24 06:44:30;;;;;;;6.88;2.35;;;37.80;22.80;;;;;;5022519;28;20113;-67
2022/06/24 06:46:56;;;;;;;8.35;2.45;;;37.80;22.20;;;;;;5016539;28;20751;-68
2022/06/24 06:49:21;;;;;;;5.07;2.17;;;36.90;23.00;;;;;;5012107;28;20129;-67
2022/06/24 06:51:47;;;;;;;14.77;2.53;;;35.60;24.40;;;;;;5080822;28;20066;-69
2022/06/24 06:54:13;;;;;;;9.38;2.45;;;35.70;24.50;;;;;;5024015;28;20395;-66
2022/06/24 06:56:39;;;;;;;6.30;2.63;;;35.20;25.00;;;;;;5014910;28;20440;-67
2022/06/24 06:59:04;;;;;;;7.60;2.28;;;34.50;25.70;;;;;;5010708;28;20022;-67
2022/06/24 07:01:30;;;;;;;9.93;2.67;;;34.50;25.40;;;;;;5026852;28;20022;-66
2022/06/24 07:03:57;;;;;;;10.38;2.70;;;33.80;26.10;;;;;;5017406;28;20057;-67
2022/06/24 07:06:24;;;;;;;5.10;2.50;;;33.60;26.60;;;;;;5029526;28;20037;-67
2022/06/24 07:08:49;;;;;;;8.10;2.58;;;33.70;26.60;;;;;;5021807;28;20029;-66
2022/06/24 07:11:15;;;;;;;5.10;2.30;;;34.20;25.90;;;;;;5025285;28;20487;-67
2022/06/24 07:13:41;;;;;;;5.35;2.50;;;35.20;24.60;;;;;;5030002;28;20032;-66
2022/06/24 07:16:10;;;;;;;4.82;2.83;;;35.20;24.50;;;;;;5030367;28;20036;-67
2022/06/24 07:18:36;;;;;;;10.40;2.42;;;34.40;25.40;;;;;;5030239;28;20025;-69
2022/06/24 07:21:02;;;;;;;5.10;2.38;;;34.20;25.50;;;;;;5027124;28;20440;-68
2022/06/24 07:23:27;;;;;;;9.20;2.50;;;33.90;26.10;;;;;;5029882;28;20037;-69
2022/06/24 07:25:56;;;;;;;8.20;2.10;;;33.20;26.90;;;;;;5030185;28;20526;-66
2022/06/24 07:28:21;;;;;;;7.80;2.78;;;33.90;26.60;;;;;;5028429;28;20026;-69
2022/06/24 07:30:47;;;;;;;7.95;2.67;;;34.90;25.00;;;;;;5028008;28;20026;-68
2022/06/24 07:33:13;;;;;;;5.20;2.13;;;35.50;24.20;;;;;;5027907;28;20037;-69
2022/06/24 07:35:38;;;;;;;6.15;2.28;;;35.50;24.40;;;;;;5010267;28;20052;-70
2022/06/24 07:38:04;;;;;;;101.55;72.85;;;36.10;23.80;;;;;;5027612;28;20112;-68
2022/06/24 07:40:30;;;;;;;6.85;2.53;;;36.70;23.40;;;;;;5028021;28;20026;-67
2022/06/24 07:42:55;;;;;;;10.13;6.68;;;36.00;23.60;;;;;;5028269;28;20041;-68
2022/06/24 07:45:21;;;;;;;5.32;2.30;;;35.50;24.30;;;;;;5030064;28;20528;-68
2022/06/24 07:47:47;;;;;;;14.00;7.88;;;34.90;24.60;;;;;;5029291;28;20395;-67
2022/06/24 07:50:12;;;;;;;5.25;2.63;;;35.00;24.90;;;;;;5029480;28;20041;-69
2022/06/24 07:52:38;;;;;;;4.43;1.60;;;34.40;25.20;;;;;;5029549;28;20489;-67
2022/06/24 07:57:49;;;;;;;6.68;2.45;;;35.00;24.90;;;;;;4982047;28;20522;-70
2022/06/24 08:00:15;;;;;;;6.03;2.50;;;35.30;24.40;;;;;;5011668;28;20026;-71
2022/06/24 08:02:40;;;;;;;3.40;1.80;;;34.80;24.70;;;;;;5029390;28;20101;-70
2022/06/24 08:05:06;;;;;;;5.03;2.00;;;34.50;25.30;;;;;;5029741;28;20105;-68
2022/06/24 08:07:32;;;;;;;4.20;2.25;;;34.50;25.40;;;;;;5028868;28;20309;-70
2022/06/24 08:09:57;;;;;;;5.85;2.50;;;34.40;25.20;;;;;;5029643;28;20037;-70
2022/06/24 08:12:23;;;;;;;5.28;2.17;;;34.00;25.80;;;;;;5029235;28;20037;-69
2022/06/24 08:14:49;;;;;;;6.05;2.30;;;33.80;25.90;;;;;;5029081;28;20416;-71
2022/06/24 08:17:14;;;;;;;3.05;1.90;;;34.00;26.10;;;;;;5028915;28;20117;-69
2022/06/24 08:19:40;;;;;;;6.25;2.20;;;34.30;25.80;;;;;;5029176;28;20026;-69
2022/06/24 08:22:06;;;;;;;4.78;2.38;;;34.50;25.50;;;;;;5028761;28;20094;-70
2022/06/24 08:24:32;;;;;;;6.18;2.70;;;35.40;24.10;;;;;;5029614;28;20101;-68
2022/06/24 08:26:57;;;;;;;3.92;1.80;;;35.00;24.60;;;;;;5029073;28;20108;-67
2022/06/24 08:29:23;;;;;;;5.90;1.80;;;35.00;24.00;;;;;;5029412;28;20032;-70
2022/06/24 08:31:48;;;;;;;12.52;2.20;;;34.90;24.40;;;;;;5027987;28;20059;-68
2022/06/24 08:34:15;;;;;;;5.93;1.85;;;35.10;24.10;;;;;;5029183;28;20490;-67
2022/06/24 08:36:40;;;;;;;5.88;1.88;;;35.90;23.40;;;;;;5028769;28;20028;-66
2022/06/24 08:39:06;;;;;;;7.15;1.80;;;35.20;23.70;;;;;;5028771;28;20025;-67
2022/06/24 08:41:32;;;;;;;9.90;4.88;;;34.90;24.50;;;;;;5028753;28;20081;-68
2022/06/24 08:43:58;;;;;;;5.78;2.90;;;35.20;24.20;;;;;;5028817;28;20057;-68
2022/06/24 08:46:25;;;;;;;5.93;2.58;;;35.60;23.40;;;;;;5028807;28;20032;-70
2022/06/24 08:48:51;;;;;;;5.20;2.25;;;35.40;23.70;;;;;;5028679;28;20040;-67
2022/06/24 08:51:19;;;;;;;8.20;4.72;;;34.90;24.10;;;;;;5028437;28;20033;-67
2022/06/24 08:53:45;;;;;;;6.53;1.80;;;34.90;24.50;;;;;;5027182;28;20018;-69
2022/06/24 08:56:11;;;;;;;7.63;2.42;;;34.40;25.00;;;;;;5028998;28;20522;-68
2022/06/24 08:58:39;;;;;;;6.60;3.92;;;34.40;25.10;;;;;;5028778;28;20043;-68
2022/06/24 09:01:05;;;;;;;8.27;2.20;;;34.90;25.10;;;;;;5028952;28;20112;-67
2022/06/24 09:03:30;;;;;;;4.63;1.90;;;35.10;24.40;;;;;;5029077;28;20060;-67
2022/06/24 09:05:56;;;;;;;12.45;2.40;;;35.20;24.20;;;;;;5029380;28;20474;-68
2022/06/24 09:08:22;;;;;;;20.92;14.10;;;34.60;25.30;;;;;;5028605;28;20025;-67
2022/06/24 09:11:06;;;;;;;11.35;6.53;;;35.00;24.70;;;;;;5029175;28;20029;-67
2022/06/24 09:13:44;;;;;;;96.35;71.85;;;35.40;24.60;;;;;;5028849;28;20057;-67
2022/06/24 09:16:11;;;;;;;478.60;375.85;;;36.40;23.50;;;;;;5028335;28;20045;-68
2022/06/24 09:18:38;;;;;;;29.80;18.90;;;36.20;24.10;;;;;;5012607;28;20037;-69
2022/06/24 09:21:04;;;;;;;20.08;11.93;;;36.60;23.40;;;;;;5011328;28;20376;-68
2022/06/24 09:23:30;;;;;;;4.50;2.50;;;36.60;23.60;;;;;;5020241;28;20036;-68
2022/06/24 09:26:00;;;;;;;8.18;3.22;;;35.80;23.90;;;;;;5022763;28;20126;-68
2022/06/24 09:28:31;;;;;;;3.60;2.53;;;35.20;24.40;;;;;;5009156;28;20029;-69
2022/06/24 09:31:07;;;;;;;4.05;1.90;;;34.50;25.40;;;;;;5007546;28;20032;-69
2022/06/24 09:33:44;;;;;;;7.85;3.75;;;34.90;25.00;;;;;;5007172;28;20076;-67
2022/06/24 09:36:12;;;;;;;3.88;1.98;;;34.70;25.80;;;;;;5002698;28;20511;-69
2022/06/24 09:39:04;;;;;;;6.10;2.22;;;34.80;25.10;;;;;;5005666;28;20037;-69
2022/06/24 09:41:40;;;;;;;5.72;2.40;;;34.50;25.60;;;;;;5015663;28;20223;-70
2022/06/24 09:44:09;;;;;;;3.17;1.80;;;34.00;25.70;;;;;;5030219;28;20380;-69
2022/06/24 09:46:35;;;;;;;4.90;2.03;;;33.60;26.50;;;;;;5030000;28;20057;-68
2022/06/24 09:49:03;;;;;;;4.65;1.90;;;33.90;26.50;;;;;;5030211;28;20083;-69
2022/06/24 09:51:29;;;;;;;4.47;2.22;;;34.50;25.80;;;;;;5030240;28;20450;-68
2022/06/24 09:53:55;;;;;;;3.22;2.05;;;34.90;25.70;;;;;;5029275;28;20025;-67
2022/06/24 09:56:22;;;;;;;6.25;2.03;;;34.50;26.20;;;;;;5031109;28;20017;-68
2022/06/24 10:01:35;;;;;;;3.90;2.17;;;33.50;27.30;;;;;;5031450;28;20040;-67
2022/06/24 10:04:04;;;;;;;3.95;2.20;;;33.60;27.40;;;;;;5031185;28;20057;-69
2022/06/24 10:06:34;;;;;;;5.00;2.28;;;33.60;27.30;;;;;;5013273;28;20030;-68
2022/06/24 10:09:05;;;;;;;5.70;2.05;;;33.70;27.70;;;;;;5030801;28;20025;-68
2022/06/24 10:11:37;;;;;;;7.65;2.55;;;33.60;27.80;;;;;;5030968;28;20061;-68
2022/06/24 10:14:03;;;;;;;6.68;2.40;;;33.10;28.60;;;;;;5031160;28;20017;-69
2022/06/24 10:16:29;;;;;;;4.45;2.40;;;33.00;28.40;;;;;;5031051;28;20502;-69
2022/06/24 10:18:55;;;;;;;4.28;1.90;;;32.50;29.00;;;;;;5030803;28;20029;-68
2022/06/24 10:21:21;;;;;;;4.85;2.47;;;32.30;29.70;;;;;;5030888;28;20025;-68
2022/06/24 10:23:51;;;;;;;4.50;2.40;;;32.60;29.50;;;;;;5013020;28;20029;-69
2022/06/24 10:26:25;;;;;;;5.38;2.22;;;32.40;29.60;;;;;;5030933;28;20072;-68
2022/06/24 10:29:03;;;;;;;5.07;2.45;;;32.50;29.60;;;;;;5012960;28;20026;-68
2022/06/24 10:31:53;;;;;;;7.90;2.35;;;32.80;28.70;;;;;;5030760;28;20030;-68
2022/06/24 10:34:22;;;;;;;3.13;2.22;;;32.40;29.60;;;;;;5030742;28;20033;-68
2022/06/24 10:36:48;;;;;;;9.38;2.88;;;32.50;29.20;;;;;;5030668;28;20033;-69
2022/06/24 10:39:19;;;;;;;9.43;2.38;;;32.90;29.50;;;;;;5030431;28;20117;-68
2022/06/24 10:41:45;;;;;;;10.95;3.03;;;33.30;28.50;;;;;;5030238;28;20033;-70
2022/06/24 10:44:32;;;;;;;7.13;2.72;;;33.40;28.00;;;;;;5030403;28;20052;-68
2022/06/24 10:47:27;;;;;;;7.55;2.45;;;33.40;29.10;;;;;;5030261;28;20420;-68
2022/06/24 10:50:00;;;;;;;4.20;2.35;;;33.50;28.60;;;;;;5007772;28;20041;-69
2022/06/24 10:52:33;;;;;;;6.25;2.58;;;33.60;28.30;;;;;;5031139;28;20028;-68
2022/06/24 10:55:29;;;;;;;7.15;2.35;;;33.10;29.20;;;;;;5028466;28;20028;-69
2022/06/24 10:58:13;;;;;;;4.70;2.45;;;33.30;29.20;;;;;;4999767;28;20395;-69
2022/06/24 11:00:39;;;;;;;5.57;2.42;;;33.10;29.50;;;;;;5031460;28;20057;-68
2022/06/24 11:03:04;;;;;;;5.18;2.30;;;33.20;29.80;;;;;;5030755;28;20184;-69
2022/06/24 11:05:46;;;;;;;5.00;2.17;;;33.40;29.70;;;;;;5030940;28;20028;-68
2022/06/24 11:08:16;;;;;;;6.97;2.72;;;33.60;29.10;;;;;;5026005;28;20108;-68
2022/06/24 11:10:43;;;;;;;5.05;2.60;;;33.50;29.40;;;;;;5008203;28;20530;-66
2022/06/24 11:13:10;;;;;;;6.68;2.90;;;33.30;29.60;;;;;;5015374;28;20037;-67
2022/06/24 11:15:52;;;;;;;10.48;3.05;;;32.90;30.20;;;;;;5001453;28;20106;-67
2022/06/24 11:18:23;;;;;;;7.18;2.72;;;32.90;30.50;;;;;;5007924;28;20345;-66
2022/06/24 11:21:08;;;;;;;4.78;2.40;;;32.90;30.40;;;;;;5014850;28;20156;-67
2022/06/24 11:23:37;;;;;;;5.00;2.40;;;32.90;30.50;;;;;;5045847;22;20503;-66
2022/06/24 11:26:18;;;;;;;10.10;2.90;;;32.90;30.70;;;;;;5029660;28;20036;-68
2022/06/24 11:28:53;;;;;;;;;;;32.80;30.70;;;;;;5029524;28;20017;-69
2022/06/24 11:31:24;;;;;;;546.75;492.27;;;32.60;31.10;;;;;;5046231;28;19912;-71
2022/06/24 11:33:58;;;;;;;49.25;34.00;;;32.50;31.50;;;;;;4996795;28;20067;-70
2022/06/24 11:36:26;;;;;;;307.95;204.48;;;32.40;31.80;;;;;;5019947;28;20540;-69
2022/06/24 11:39:01;;;;;;;95.28;57.63;;;32.30;32.10;;;;;;5016621;28;20026;-68
2022/06/24 11:41:31;;;;;;;194.30;135.98;;;32.40;32.10;;;;;;5005932;28;20026;-68
2022/06/24 11:43:57;;;;;;;25.45;13.93;;;32.40;32.00;;;;;;5004881;28;20034;-69
2022/06/24 11:46:23;;;;;;;16.73;8.35;;;32.40;31.80;;;;;;5007221;28;20131;-72
2022/06/24 11:48:49;;;;;;;13.35;8.30;;;32.60;31.70;;;;;;4997834;28;20032;-68
2022/06/24 11:51:21;;;;;;;28.95;16.98;;;32.80;31.40;;;;;;5003115;28;20022;-68
2022/06/24 11:54:01;;;;;;;10.13;4.25;;;32.90;31.10;;;;;;5011100;28;20032;-68
2022/06/24 11:56:29;;;;;;;17.00;5.28;;;33.20;31.00;;;;;;5020125;28;20060;-67
2022/06/24 11:59:02;;;;;;;9.18;5.43;;;33.50;30.80;;;;;;5013302;28;20391;-68
2022/06/24 12:01:29;;;;;;;7.63;4.82;;;33.80;30.30;;;;;;5010243;28;20025;-69
2022/06/24 12:03:58;;;;;;;11.25;7.28;;;34.10;30.10;;;;;;5005631;28;20018;-69
2022/06/24 12:06:25;;;;;;;5.80;2.92;;;34.50;29.30;;;;;;5005445;28;20064;-69
2022/06/24 12:08:51;;;;;;;9.07;3.50;;;34.40;29.20;;;;;;5021261;28;20021;-68
2022/06/24 12:11:19;;;;;;;5.07;2.70;;;34.00;30.10;;;;;;5013799;28;20037;-67
2022/06/24 12:14:19;;;;;;;4.55;3.05;;;33.70;29.70;;;;;;5025024;28;20075;-69
2022/06/24 12:17:06;;;;;;;8.90;3.00;;;33.30;30.40;;;;;;5028072;28;20034;-68
2022/06/24 12:19:34;;;;;;;8.98;2.92;;;32.70;31.50;;;;;;5020898;28;20506;-69
2022/06/24 12:22:08;;;;;;;5.25;2.60;;;32.50;32.30;;;;;;5018376;28;20064;-69
2022/06/24 12:24:35;;;;;;;6.93;2.75;;;32.40;32.00;;;;;;5021041;28;20030;-70
2022/06/24 12:27:03;;;;;;;5.38;2.55;;;32.50;31.80;;;;;;5021708;28;20047;-70
2022/06/24 12:29:32;;;;;;;5.00;2.90;;;32.50;31.60;;;;;;5020506;28;20045;-68
2022/06/24 12:31:59;;;;;;;5.55;3.00;;;32.80;31.10;;;;;;5018130;28;20030;-69
2022/06/24 12:34:36;;;;;;;3.83;2.40;;;33.00;31.20;;;;;;5019237;28;20026;-67
2022/06/24 12:37:07;;;;;;;3.28;2.65;;;32.90;31.20;;;;;;5021313;28;20502;-69
2022/06/24 12:39:35;;;;;;;4.78;2.45;;;32.90;31.50;;;;;;5020229;28;20551;-69
2022/06/24 12:42:01;;;;;;;5.90;2.90;;;32.40;31.80;;;;;;5018321;28;20258;-69
2022/06/24 12:44:40;;;;;;;4.63;2.80;;;32.20;32.50;;;;;;5018548;28;20519;-68
2022/06/24 12:52:38;;;;;;;5.07;2.75;;;31.90;33.40;;;;;;5023218;28;20032;-65
2022/06/24 12:55:06;;;;;;;5.38;2.85;;;31.80;33.90;;;;;;5026506;28;20105;-71
2022/06/24 12:57:31;;;;;;;59.75;50.17;;;31.50;34.30;;;;;;5011240;28;20052;-68
2022/06/24 12:59:57;;;;;;;25.10;17.60;;;31.10;34.60;;;;;;5013333;28;20021;-70
2022/06/24 13:02:23;;;;;;;189.77;120.90;;;31.10;34.60;;;;;;5019905;28;20046;-70
2022/06/24 13:04:49;;;;;;;21.48;12.93;;;31.10;34.90;;;;;;5015143;28;20047;-69
2022/06/24 13:07:14;;;;;;;11.13;5.57;;;31.00;34.70;;;;;;5013306;28;20103;-69
2022/06/24 13:09:40;;;;;;;7.00;4.22;;;30.90;34.90;;;;;;5024741;28;20022;-69
2022/06/24 13:12:06;;;;;;;8.65;3.67;;;30.90;34.90;;;;;;5006039;28;20037;-68